Terminal Aerodrome Forecast
Issued by NWS

Home | Current Version | Previous Version | Graphics & Text | Print | Product List | Glossary On
Versions: 1 2 3 4 5 6 7 8 9 10 11 12 13 14 15 16 17 18 19 20
000
FTUS42 KMHX 272336
TAFISO
TAF
KISO 272336Z 2800/2824 VRB04KT P6SM SCT250
     FM280800 00000KT 3SM BR BKN005
     FM281400 04007KT P6SM SCT020
     FM281800 05007KT P6SM VCTS BKN035CB
      AMD LTD TO CLD VIS AND WIND=

USA.gov is the U.S. government's official web portal to all federal, state and local government web resources and services.